createdAt,value
2018-09-15T00:01:18.696Z,12.43
2018-09-15T00:03:28.656Z,11.50
2018-09-15T00:05:34.478Z,11.23
2018-09-15T00:07:40.140Z,9.43
2018-09-15T00:09:45.559Z,8.90
2018-09-15T00:11:51.292Z,8.50
2018-09-15T00:13:56.445Z,7.70
2018-09-15T00:16:02.342Z,8.03
2018-09-15T00:18:20.494Z,7.10
2018-09-15T00:20:26.318Z,11.30
2018-09-15T00:22:31.861Z,5.27
2018-09-15T00:24:37.124Z,5.70
2018-09-15T00:26:42.786Z,5.03
2018-09-15T00:28:47.992Z,3.77
2018-09-15T00:30:53.990Z,4.00
2018-09-15T00:32:59.746Z,4.20
2018-09-15T00:35:05.364Z,3.73
2018-09-15T00:37:10.807Z,3.57
2018-09-15T00:39:17.128Z,3.43
2018-09-15T00:41:23.436Z,4.97
2018-09-15T00:43:29.096Z,3.63
2018-09-15T00:45:34.680Z,3.80
2018-09-15T00:47:40.314Z,3.97
2018-09-15T00:49:46.373Z,5.50
2018-09-15T00:51:51.827Z,4.40
2018-09-15T00:53:58.548Z,5.77
2018-09-15T00:56:04.340Z,5.73
2018-09-15T00:58:09.703Z,6.00
2018-09-15T01:00:15.530Z,5.70
2018-09-15T01:02:21.377Z,6.30
2018-09-15T01:04:26.981Z,6.37
2018-09-15T01:06:32.876Z,5.77
2018-09-15T01:08:41.573Z,4.93
2018-09-15T01:10:47.822Z,5.80
2018-09-15T01:12:53.544Z,4.37
2018-09-15T01:14:59.308Z,4.73
2018-09-15T01:17:04.832Z,5.07
2018-09-15T01:19:10.587Z,4.30
2018-09-15T01:21:16.552Z,4.20
2018-09-15T01:23:22.737Z,5.00
2018-09-15T01:25:28.648Z,3.30
2018-09-15T01:27:34.660Z,4.13
2018-09-15T01:29:40.742Z,3.57
2018-09-15T01:31:46.719Z,4.00
2018-09-15T01:33:52.515Z,3.47
2018-09-15T01:35:58.833Z,3.53
2018-09-15T01:38:04.487Z,3.60
2018-09-15T01:40:09.876Z,3.10
2018-09-15T01:42:20.494Z,3.30
2018-09-15T01:44:26.184Z,2.90
2018-09-15T01:46:31.770Z,3.20
2018-09-15T01:48:37.556Z,3.50
2018-09-15T01:50:43.118Z,3.80
2018-09-15T01:52:48.429Z,2.87
2018-09-15T01:54:53.414Z,4.23
2018-09-15T01:56:58.548Z,3.30
2018-09-15T01:59:15.972Z,2.83
2018-09-15T02:01:21.204Z,4.90
2018-09-15T02:03:26.872Z,3.87
2018-09-15T02:05:32.667Z,6.20
2018-09-15T02:07:38.298Z,5.90
2018-09-15T02:09:43.664Z,4.20
2018-09-15T02:11:49.020Z,4.43
2018-09-15T02:13:54.595Z,3.70
2018-09-15T02:15:59.783Z,3.13
2018-09-15T02:18:05.167Z,4.70
2018-09-15T02:20:10.546Z,4.10
2018-09-15T02:22:16.182Z,4.90
2018-09-15T02:24:21.404Z,3.77
2018-09-15T02:26:27.559Z,3.90
2018-09-15T02:28:33.855Z,3.63
2018-09-15T02:30:39.508Z,6.00
2018-09-15T02:32:45.072Z,3.87
2018-09-15T02:34:50.415Z,4.23
2018-09-15T02:36:55.912Z,4.50
2018-09-15T02:39:01.242Z,4.50
2018-09-15T02:41:06.789Z,4.10
2018-09-15T02:43:12.699Z,4.43
2018-09-15T02:45:18.002Z,6.27
2018-09-15T02:47:23.613Z,4.07
2018-09-15T02:49:29.214Z,4.90
2018-09-15T02:51:35.177Z,4.40
2018-09-15T02:53:40.850Z,3.87
2018-09-15T02:55:46.312Z,3.63
2018-09-15T02:57:51.682Z,2.93
2018-09-15T02:59:57.221Z,3.57
2018-09-15T03:02:02.562Z,3.40
2018-09-15T03:04:07.912Z,2.97
2018-09-15T03:06:13.156Z,3.00
2018-09-15T03:08:19.067Z,3.10
2018-09-15T03:10:24.485Z,3.57
2018-09-15T03:12:29.262Z,3.67
2018-09-15T03:14:34.019Z,4.90
2018-09-15T03:16:39.416Z,4.23
2018-09-15T03:18:44.748Z,3.83
2018-09-15T03:20:50.264Z,7.10
2018-09-15T03:22:55.870Z,4.17
2018-09-15T03:25:01.181Z,4.63
2018-09-15T03:27:06.575Z,7.47
2018-09-15T03:29:11.939Z,5.23
2018-09-15T03:31:17.332Z,4.80
2018-09-15T03:33:23.289Z,5.63
2018-09-15T03:35:28.363Z,5.47
2018-09-15T03:37:36.013Z,4.10
2018-09-15T03:39:41.538Z,5.37
2018-09-15T03:41:46.928Z,4.73
2018-09-15T03:43:52.339Z,5.23
2018-09-15T03:45:57.670Z,4.20
2018-09-15T03:48:03.076Z,4.50
2018-09-15T03:50:08.358Z,5.40
2018-09-15T03:52:13.870Z,4.23
2018-09-15T03:54:20.122Z,5.17
2018-09-15T03:56:25.260Z,4.10
2018-09-15T03:58:30.591Z,5.33
2018-09-15T04:00:35.851Z,5.57
2018-09-15T04:02:41.155Z,4.83
2018-09-15T04:04:46.814Z,5.43
2018-09-15T04:06:52.492Z,5.63
2018-09-15T04:08:57.985Z,5.50
2018-09-15T04:11:03.274Z,6.23
2018-09-15T04:13:08.627Z,5.93
2018-09-15T04:15:13.595Z,6.13
2018-09-15T04:17:19.047Z,5.97
2018-09-15T04:19:24.377Z,5.30
2018-09-15T04:21:29.696Z,5.70
2018-09-15T04:23:34.659Z,6.27
2018-09-15T04:25:39.920Z,6.40
2018-09-15T04:27:45.137Z,6.37
2018-09-15T04:29:50.486Z,6.20
2018-09-15T04:31:56.106Z,7.50
2018-09-15T04:34:01.383Z,7.70
2018-09-15T04:36:08.014Z,6.10
2018-09-15T04:38:14.133Z,8.70
2018-09-15T04:40:19.467Z,9.03
2018-09-15T04:42:25.003Z,9.70
2018-09-15T04:44:30.439Z,9.27
2018-09-15T04:46:35.886Z,9.90
2018-09-15T04:48:41.070Z,9.87
2018-09-15T04:50:46.657Z,11.43
2018-09-15T04:55:20.338Z,11.77
2018-09-15T04:57:25.494Z,11.30
2018-09-15T04:59:30.717Z,11.67
2018-09-15T05:01:35.579Z,10.87
2018-09-15T05:03:40.628Z,11.77
2018-09-15T05:05:45.394Z,11.93
2018-09-15T05:07:50.327Z,12.20
2018-09-15T05:09:55.685Z,14.10
2018-09-15T05:12:00.222Z,11.33
2018-09-15T05:14:05.249Z,13.20
2018-09-15T05:16:14.182Z,14.87
2018-09-15T05:18:19.459Z,12.17
2018-09-15T05:20:24.390Z,11.33
2018-09-15T05:22:29.375Z,13.17
2018-09-15T05:24:34.315Z,11.80
2018-09-15T05:26:39.225Z,12.93
2018-09-15T05:28:44.206Z,13.17
2018-09-15T05:30:49.130Z,13.97
2018-09-15T05:32:53.891Z,13.90
2018-09-15T05:34:58.754Z,14.33
2018-09-15T05:37:03.810Z,13.40
2018-09-15T05:39:08.608Z,14.87
2018-09-15T05:41:13.434Z,14.07
2018-09-15T05:43:18.190Z,13.80
2018-09-15T05:45:23.172Z,15.53
2018-09-15T05:47:28.050Z,13.90
2018-09-15T05:49:33.022Z,14.10
2018-09-15T05:51:37.913Z,15.33
2018-09-15T05:53:42.876Z,16.20
2018-09-15T05:55:47.743Z,17.10
2018-09-15T05:57:52.647Z,16.27
2018-09-15T05:59:57.359Z,14.47
2018-09-15T06:02:02.860Z,17.20
2018-09-15T06:04:07.736Z,17.73
2018-09-15T06:06:12.631Z,17.07
2018-09-15T06:08:17.563Z,16.13
2018-09-15T06:10:22.553Z,16.20
2018-09-15T06:12:27.468Z,18.50
2018-09-15T06:14:32.441Z,16.63
2018-09-15T06:16:37.361Z,18.83
2018-09-15T06:18:42.232Z,17.60
2018-09-15T06:20:47.060Z,17.30
2018-09-15T06:22:52.011Z,17.17
2018-09-15T06:24:56.809Z,18.10
2018-09-15T06:27:02.037Z,17.83
2018-09-15T06:29:06.905Z,17.33
2018-09-15T06:31:11.815Z,21.43
2018-09-15T06:33:16.673Z,17.97
2018-09-15T06:35:22.178Z,18.83
2018-09-15T06:37:27.023Z,17.83
2018-09-15T06:39:31.608Z,18.50
2018-09-15T06:41:36.292Z,17.67
2018-09-15T06:43:42.021Z,18.20
2018-09-15T06:45:47.506Z,17.47
2018-09-15T06:47:52.477Z,18.40
2018-09-15T06:49:57.225Z,19.53
2018-09-15T06:52:01.989Z,20.33
2018-09-15T06:54:06.854Z,19.57
2018-09-15T06:56:11.720Z,19.17
2018-09-15T06:58:16.697Z,18.80
2018-09-15T07:00:21.514Z,19.27
2018-09-15T07:02:26.428Z,19.17
2018-09-15T07:04:31.316Z,20.27
2018-09-15T07:06:36.250Z,19.90
2018-09-15T07:08:41.230Z,19.80
2018-09-15T07:10:46.133Z,20.43
2018-09-15T07:12:51.099Z,19.43
2018-09-15T07:14:55.850Z,19.70
2018-09-15T07:17:00.931Z,19.03
2018-09-15T07:19:06.199Z,20.20
2018-09-15T07:21:11.304Z,21.63
2018-09-15T07:23:16.144Z,19.50
2018-09-15T07:25:21.042Z,20.80
2018-09-15T07:27:25.978Z,19.97
2018-09-15T07:29:30.844Z,19.83
2018-09-15T07:31:35.825Z,19.43
2018-09-15T07:33:40.844Z,21.63
2018-09-15T07:35:45.746Z,19.10
2018-09-15T07:37:50.323Z,19.70
2018-09-15T07:39:55.302Z,20.07
2018-09-15T07:42:00.613Z,23.40
2018-09-15T07:44:05.524Z,22.80
2018-09-15T07:46:10.760Z,21.93
2018-09-15T07:48:15.690Z,20.93
2018-09-15T07:50:20.444Z,20.43
2018-09-15T07:52:25.720Z,21.47
2018-09-15T07:54:30.723Z,24.30
2018-09-15T07:56:35.500Z,21.50
2018-09-15T07:58:40.665Z,21.13
2018-09-15T08:00:45.423Z,21.50
2018-09-15T08:02:50.389Z,21.40
2018-09-15T08:04:55.472Z,20.90
2018-09-15T08:07:00.378Z,22.67
2018-09-15T08:09:05.351Z,23.53
2018-09-15T08:11:10.387Z,20.87
2018-09-15T08:13:15.715Z,22.50
2018-09-15T08:15:20.855Z,23.97
2018-09-15T08:17:25.817Z,23.17
2018-09-15T08:19:30.691Z,21.50
2018-09-15T08:21:35.752Z,22.00
2018-09-15T08:23:40.728Z,23.73
2018-09-15T08:25:45.660Z,21.50
2018-09-15T08:27:51.229Z,23.87
2018-09-15T08:29:56.117Z,22.63
2018-09-15T08:32:01.233Z,22.70
2018-09-15T08:34:06.351Z,21.17
2018-09-15T08:36:11.271Z,22.73
2018-09-15T08:38:16.114Z,22.97
2018-09-15T08:40:21.202Z,23.47
2018-09-15T08:42:26.019Z,22.90
2018-09-15T08:44:30.898Z,24.43
2018-09-15T08:46:35.709Z,21.20
2018-09-15T08:48:41.900Z,24.27
2018-09-15T08:50:46.906Z,22.67
2018-09-15T08:52:51.849Z,23.70
2018-09-15T08:54:56.817Z,21.60
2018-09-15T08:57:01.574Z,23.47
2018-09-15T08:59:06.549Z,24.30
2018-09-15T09:01:11.579Z,23.77
2018-09-15T09:03:16.410Z,23.37
2018-09-15T09:05:21.177Z,22.60
2018-09-15T09:07:26.006Z,23.33
2018-09-15T09:09:31.166Z,23.13
2018-09-15T09:11:36.101Z,21.70
2018-09-15T09:13:40.953Z,24.37
2018-09-15T09:15:46.055Z,24.17
2018-09-15T09:17:51.301Z,22.43
2018-09-15T09:19:56.662Z,24.27
2018-09-15T09:22:01.704Z,23.00
2018-09-15T09:24:06.771Z,22.30
2018-09-15T09:26:11.595Z,21.60
2018-09-15T09:28:17.639Z,20.23
2018-09-15T09:30:22.513Z,22.60
2018-09-15T09:32:27.509Z,21.47
2018-09-15T09:34:32.657Z,23.23
2018-09-15T09:36:37.538Z,21.47
2018-09-15T09:38:42.359Z,23.10
2018-09-15T09:40:47.081Z,21.80
2018-09-15T09:42:52.219Z,22.87
2018-09-15T09:44:57.189Z,21.97
2018-09-15T09:47:02.378Z,32.57
2018-09-15T09:49:07.693Z,29.50
2018-09-15T09:51:12.576Z,26.73
2018-09-15T09:53:17.637Z,26.97
2018-09-15T09:55:22.578Z,26.33
2018-09-15T09:57:27.778Z,25.90
2018-09-15T09:59:32.890Z,25.43
2018-09-15T10:01:41.762Z,24.37
2018-09-15T10:03:46.881Z,25.50
2018-09-15T10:05:51.794Z,26.30
2018-09-15T10:07:56.749Z,25.40
2018-09-15T10:10:01.705Z,26.37
2018-09-15T10:12:06.697Z,26.73
2018-09-15T10:14:11.535Z,25.67
2018-09-15T10:16:16.578Z,25.93
2018-09-15T10:18:21.769Z,28.70
2018-09-15T10:20:26.822Z,29.23
2018-09-15T10:22:32.305Z,26.63
2018-09-15T10:24:37.265Z,26.33
2018-09-15T10:26:44.223Z,25.60
2018-09-15T10:28:49.144Z,26.67
2018-09-15T10:30:54.197Z,26.80
2018-09-15T10:32:59.326Z,25.63
2018-09-15T10:35:04.142Z,26.47
2018-09-15T10:37:09.067Z,27.83
2018-09-15T10:39:14.488Z,393.87
2018-09-15T10:41:19.353Z,70.13
2018-09-15T10:43:24.509Z,44.90
2018-09-15T10:45:29.412Z,53.10
2018-09-15T10:47:34.231Z,53.20
2018-09-15T10:49:39.318Z,51.27
2018-09-15T10:51:44.174Z,49.70
2018-09-15T10:53:49.096Z,49.53
2018-09-15T10:55:53.816Z,46.10
2018-09-15T10:57:58.851Z,44.93
2018-09-15T11:00:03.728Z,45.83
2018-09-15T11:02:09.074Z,43.83
2018-09-15T11:04:14.160Z,42.60
2018-09-15T11:06:19.015Z,44.23
2018-09-15T11:08:24.278Z,43.87
2018-09-15T11:10:28.952Z,40.60
2018-09-15T11:12:33.914Z,41.73
2018-09-15T11:14:38.947Z,40.00
2018-09-15T11:16:43.809Z,40.60
2018-09-15T11:18:48.848Z,39.70
2018-09-15T11:20:53.853Z,41.03
2018-09-15T11:22:58.765Z,40.70
2018-09-15T11:25:03.787Z,37.77
2018-09-15T11:27:08.529Z,39.40
2018-09-15T11:29:13.617Z,39.03
2018-09-15T11:31:18.808Z,37.80
2018-09-15T11:33:23.650Z,38.77
2018-09-15T11:35:28.556Z,37.57
2018-09-15T11:37:33.678Z,34.77
2018-09-15T11:39:38.770Z,39.50
2018-09-15T11:41:44.304Z,34.90
2018-09-15T11:43:49.516Z,34.13
2018-09-15T11:45:54.640Z,36.80
2018-09-15T11:48:00.104Z,34.73
2018-09-15T11:52:41.990Z,34.40
2018-09-15T11:54:47.273Z,34.37
2018-09-15T11:56:53.251Z,32.50
2018-09-15T11:58:58.855Z,32.50
2018-09-15T12:01:05.838Z,34.27
2018-09-15T12:03:10.800Z,32.27
2018-09-15T12:05:16.437Z,32.27
2018-09-15T12:07:21.741Z,31.50
2018-09-15T12:09:26.800Z,31.50
2018-09-15T12:11:31.966Z,32.03
2018-09-15T12:13:37.566Z,33.23
2018-09-15T12:15:43.117Z,31.43
2018-09-15T12:17:48.503Z,32.47
2018-09-15T12:19:53.920Z,32.67
2018-09-15T12:21:59.277Z,31.33
2018-09-15T12:24:04.279Z,40.37
2018-09-15T12:26:09.277Z,31.87
2018-09-15T12:28:14.712Z,28.47
2018-09-15T12:30:20.275Z,30.90
2018-09-15T12:32:25.760Z,34.63
2018-09-15T12:34:31.596Z,29.23
2018-09-15T12:36:37.549Z,31.73
2018-09-15T12:38:42.769Z,30.30
2018-09-15T12:40:48.241Z,38.30
2018-09-15T12:42:53.993Z,32.30
2018-09-15T12:44:59.637Z,29.40
2018-09-15T12:47:05.017Z,30.73
2018-09-15T12:49:11.418Z,30.70
2018-09-15T12:51:17.081Z,29.37
2018-09-15T12:53:22.442Z,35.63
2018-09-15T12:55:27.775Z,27.87
2018-09-15T12:57:33.538Z,31.00
2018-09-15T12:59:40.089Z,29.07
2018-09-15T13:01:45.647Z,28.80
2018-09-15T13:03:51.977Z,28.80
2018-09-15T13:05:57.549Z,29.27
2018-09-15T13:08:02.960Z,27.60
2018-09-15T13:10:08.565Z,27.03
2018-09-15T13:12:15.012Z,27.80
2018-09-15T13:14:21.840Z,26.00
2018-09-15T13:16:27.674Z,30.60
2018-09-15T13:18:33.429Z,27.20
2018-09-15T13:20:38.522Z,28.77
2018-09-15T13:22:43.654Z,25.97
2018-09-15T13:24:49.303Z,27.97
2018-09-15T13:26:55.700Z,31.17
2018-09-15T13:29:00.814Z,26.07
2018-09-15T13:31:05.927Z,27.67
2018-09-15T13:33:11.276Z,29.37
2018-09-15T13:35:16.475Z,110.43
2018-09-15T13:37:21.723Z,67.93
2018-09-15T13:39:26.845Z,74.30
2018-09-15T13:41:32.316Z,69.33
2018-09-15T13:43:39.632Z,89.90
2018-09-15T13:45:44.919Z,53.30
2018-09-15T13:47:50.796Z,70.53
2018-09-15T13:49:56.103Z,41.90
2018-09-15T13:52:01.330Z,45.93
2018-09-15T13:54:06.901Z,48.03
2018-09-15T13:56:13.679Z,37.83
2018-09-15T13:58:19.042Z,47.90
2018-09-15T14:00:24.099Z,45.77
2018-09-15T14:02:29.457Z,45.83
2018-09-15T14:04:36.517Z,37.13
2018-09-15T14:06:42.385Z,35.98
2018-09-15T14:08:47.729Z,32.00
2018-09-15T14:10:53.382Z,32.87
2018-09-15T14:12:58.371Z,38.93
2018-09-15T14:15:06.064Z,37.90
2018-09-15T14:17:11.547Z,36.50
2018-09-15T14:19:16.712Z,37.30
2018-09-15T14:21:22.210Z,32.13
2018-09-15T14:23:28.036Z,28.43
2018-09-15T14:25:33.426Z,30.90
2018-09-15T14:27:38.628Z,24.63
2018-09-15T14:29:44.061Z,25.47
2018-09-15T14:31:55.242Z,33.07
2018-09-15T14:34:02.482Z,31.00
2018-09-15T14:36:07.627Z,28.90
2018-09-15T14:38:13.328Z,32.67
2018-09-15T14:40:18.983Z,26.60
2018-09-15T14:42:24.437Z,29.50
2018-09-15T14:44:30.163Z,25.30
2018-09-15T14:46:35.490Z,25.60
2018-09-15T14:48:40.713Z,26.63
2018-09-15T14:50:46.382Z,27.20
2018-09-15T14:52:51.640Z,25.67
2018-09-15T14:54:56.936Z,29.27
2018-09-15T14:57:02.787Z,24.33
2018-09-15T14:59:08.364Z,26.33
2018-09-15T15:01:14.065Z,23.10
2018-09-15T15:03:20.513Z,24.13
2018-09-15T15:05:25.880Z,22.90
2018-09-15T15:07:31.292Z,22.87
2018-09-15T15:09:37.223Z,24.67
2018-09-15T15:11:43.236Z,41.87
2018-09-15T15:13:48.538Z,47.20
2018-09-15T15:15:54.006Z,77.37
2018-09-15T15:17:59.396Z,107.80
2018-09-15T15:20:05.206Z,90.20
2018-09-15T15:22:11.846Z,92.10
2018-09-15T15:24:17.864Z,80.40
2018-09-15T15:26:23.072Z,73.83
2018-09-15T15:28:28.806Z,72.33
2018-09-15T15:30:34.367Z,90.33
2018-09-15T15:32:39.948Z,69.13
2018-09-15T15:34:45.673Z,79.53
2018-09-15T15:36:50.690Z,63.93
2018-09-15T15:38:56.508Z,59.10
2018-09-15T15:41:01.453Z,64.67
2018-09-15T15:43:06.622Z,58.57
2018-09-15T15:45:11.570Z,61.80
2018-09-15T15:47:16.629Z,56.00
2018-09-15T15:49:21.664Z,65.30
2018-09-15T15:51:26.751Z,61.60
2018-09-15T15:53:31.694Z,67.63
2018-09-15T15:55:36.965Z,58.43
2018-09-15T15:57:41.928Z,62.03
2018-09-15T15:59:46.842Z,54.20
2018-09-15T16:01:51.707Z,64.60
2018-09-15T16:03:56.677Z,60.67
2018-09-15T16:06:01.691Z,59.23
2018-09-15T16:08:06.695Z,56.73
2018-09-15T16:10:11.969Z,48.13
2018-09-15T16:12:16.984Z,51.73
2018-09-15T16:14:23.621Z,53.17
2018-09-15T16:16:28.588Z,52.77
2018-09-15T16:18:33.892Z,51.97
2018-09-15T16:20:38.709Z,52.73
2018-09-15T16:22:43.566Z,48.20
2018-09-15T16:24:48.856Z,41.00
2018-09-15T16:29:12.641Z,41.73
2018-09-15T16:31:17.452Z,45.83
2018-09-15T16:33:22.287Z,40.03
2018-09-15T16:35:27.149Z,41.73
2018-09-15T16:37:32.215Z,44.30
2018-09-15T16:39:37.164Z,38.00
2018-09-15T16:44:12.323Z,40.43
2018-09-15T16:46:17.170Z,37.57
2018-09-15T16:48:22.486Z,37.00
2018-09-15T16:50:27.464Z,45.60
2018-09-15T16:52:32.558Z,40.10
2018-09-15T16:54:37.615Z,39.33
2018-09-15T16:56:42.483Z,35.07
2018-09-15T16:58:47.625Z,43.00
2018-09-15T17:00:52.567Z,36.10
2018-09-15T17:02:58.241Z,41.70
2018-09-15T17:05:33.981Z,37.43
2018-09-15T17:07:41.968Z,34.43
2018-09-15T17:09:47.274Z,37.67
2018-09-15T17:11:52.256Z,28.87
2018-09-15T17:13:57.479Z,32.80
2018-09-15T17:16:02.403Z,34.50
2018-09-15T17:18:07.272Z,32.30
2018-09-15T17:20:12.544Z,31.43
2018-09-15T17:22:18.159Z,32.17
2018-09-15T17:24:23.239Z,28.07
2018-09-15T17:26:28.226Z,33.53
2018-09-15T17:28:33.305Z,31.43
2018-09-15T17:30:38.258Z,28.50
2018-09-15T17:32:43.328Z,24.73
2018-09-15T17:34:48.230Z,30.40
2018-09-15T17:36:53.150Z,27.67
2018-09-15T17:38:58.206Z,31.87
2018-09-15T17:41:03.180Z,28.10
2018-09-15T17:43:07.894Z,24.33
2018-09-15T17:45:13.176Z,27.80
2018-09-15T17:47:18.063Z,24.07
2018-09-15T17:49:23.007Z,26.70
2018-09-15T17:51:28.090Z,22.57
2018-09-15T17:53:33.087Z,26.77
2018-09-15T17:55:38.137Z,27.47
2018-09-15T17:57:43.053Z,25.27
2018-09-15T17:59:49.624Z,25.30
2018-09-15T18:01:54.667Z,25.70
2018-09-15T18:03:59.826Z,23.67
2018-09-15T18:06:04.782Z,21.20
2018-09-15T18:08:09.565Z,26.10
2018-09-15T18:10:15.352Z,24.40
2018-09-15T18:12:20.217Z,23.50
2018-09-15T18:14:25.114Z,22.37
2018-09-15T18:16:30.235Z,20.73
2018-09-15T18:18:35.200Z,21.40
2018-09-15T18:20:47.496Z,26.70
2018-09-15T18:22:52.653Z,20.33
2018-09-15T18:24:57.561Z,23.93
2018-09-15T18:27:02.525Z,20.07
2018-09-15T18:29:07.331Z,19.97
2018-09-15T18:31:12.203Z,19.03
2018-09-15T18:33:17.057Z,19.10
2018-09-15T18:35:22.163Z,19.40
2018-09-15T18:37:27.175Z,19.00
2018-09-15T18:39:32.034Z,19.83
2018-09-15T18:41:36.996Z,24.10
2018-09-15T18:43:42.151Z,19.97
2018-09-15T18:45:47.125Z,18.00
2018-09-15T18:47:52.179Z,17.90
2018-09-15T18:49:57.112Z,18.37
2018-09-15T18:52:02.084Z,16.70
2018-09-15T18:54:07.128Z,19.27
2018-09-15T18:56:11.966Z,17.23
2018-09-15T18:58:17.122Z,18.47
2018-09-15T19:00:22.208Z,17.30
2018-09-15T19:02:27.174Z,16.83
2018-09-15T19:04:32.155Z,15.90
2018-09-15T19:06:37.036Z,18.10
2018-09-15T19:08:41.865Z,16.50
2018-09-15T19:10:46.889Z,18.40
2018-09-15T19:12:51.890Z,17.13
2018-09-15T19:14:56.917Z,16.83
2018-09-15T19:17:01.928Z,16.50
2018-09-15T19:19:07.036Z,16.13
2018-09-15T19:21:11.954Z,15.10
2018-09-15T19:23:17.160Z,16.10
2018-09-15T19:25:22.511Z,15.30
2018-09-15T19:27:27.690Z,15.80
2018-09-15T19:29:32.600Z,15.63
2018-09-15T19:31:37.497Z,17.23
2018-09-15T19:33:42.780Z,15.23
2018-09-15T19:35:47.727Z,16.07
2018-09-15T19:37:53.429Z,14.67
2018-09-15T19:39:58.627Z,17.60
2018-09-15T19:42:03.557Z,14.20
2018-09-15T19:44:08.594Z,15.43
2018-09-15T19:46:13.353Z,15.77
2018-09-15T19:48:18.226Z,15.90
2018-09-15T19:50:23.442Z,13.23
2018-09-15T19:52:28.466Z,15.50
2018-09-15T19:54:33.571Z,16.87
2018-09-15T19:56:38.630Z,14.97
2018-09-15T19:58:43.699Z,15.30
2018-09-15T20:00:49.045Z,15.70
2018-09-15T20:02:54.088Z,14.23
2018-09-15T20:04:59.411Z,12.97
2018-09-15T20:07:04.427Z,13.73
2018-09-15T20:09:09.322Z,14.70
2018-09-15T20:11:14.301Z,13.50
2018-09-15T20:13:19.291Z,12.20
2018-09-15T20:15:30.683Z,13.00
2018-09-15T20:17:35.928Z,12.50
2018-09-15T20:19:40.832Z,13.70
2018-09-15T20:21:45.833Z,13.80
2018-09-15T20:23:50.722Z,10.80
2018-09-15T20:25:55.672Z,12.70
2018-09-15T20:28:00.603Z,13.00
2018-09-15T20:30:05.271Z,12.47
2018-09-15T20:32:10.003Z,11.37
2018-09-15T20:34:15.108Z,15.40
2018-09-15T20:36:20.285Z,11.73
2018-09-15T20:38:25.667Z,12.03
2018-09-15T20:40:30.531Z,11.80
2018-09-15T20:42:35.709Z,11.47
2018-09-15T20:44:40.620Z,11.20
2018-09-15T20:46:45.683Z,11.27
2018-09-15T20:48:50.597Z,12.60
2018-09-15T20:50:55.320Z,11.47
2018-09-15T20:53:00.510Z,10.23
2018-09-15T20:55:05.394Z,13.30
2018-09-15T20:57:10.465Z,12.27
2018-09-15T20:59:15.512Z,12.43
2018-09-15T21:01:20.566Z,11.47
2018-09-15T21:03:25.347Z,11.23
2018-09-15T21:05:30.813Z,11.83
2018-09-15T21:07:36.068Z,12.50
2018-09-15T21:09:41.547Z,10.10
2018-09-15T21:11:46.842Z,10.13
2018-09-15T21:13:52.953Z,11.57
2018-09-15T21:15:58.542Z,13.20
2018-09-15T21:18:04.113Z,14.77
2018-09-15T21:20:09.150Z,12.40
2018-09-15T21:22:15.671Z,11.43
2018-09-15T21:24:21.347Z,14.70
2018-09-15T21:26:27.201Z,12.93
2018-09-15T21:28:32.257Z,11.37
2018-09-15T21:30:37.328Z,11.17
2018-09-15T21:32:42.269Z,10.27
2018-09-15T21:34:47.649Z,13.60
2018-09-15T21:36:52.472Z,11.10
2018-09-15T21:38:57.548Z,14.70
2018-09-15T21:41:02.603Z,10.60
2018-09-15T21:43:07.318Z,10.60
2018-09-15T21:47:23.827Z,11.07
2018-09-15T21:49:28.646Z,10.20
2018-09-15T21:51:33.420Z,11.23
2018-09-15T21:53:38.403Z,11.43
2018-09-15T21:55:43.434Z,12.93
2018-09-15T21:57:48.628Z,10.40
2018-09-15T21:59:53.715Z,12.10
2018-09-15T22:01:58.478Z,10.60
2018-09-15T22:06:18.397Z,15.93
2018-09-15T22:08:23.391Z,12.47
2018-09-15T22:10:28.367Z,16.20
2018-09-15T22:12:33.439Z,10.70
2018-09-15T22:14:38.423Z,12.30
2018-09-15T22:16:43.693Z,12.50
2018-09-15T22:18:48.593Z,10.47
2018-09-15T22:20:53.699Z,12.97
2018-09-15T22:22:58.656Z,11.90
2018-09-15T22:25:03.963Z,12.90
2018-09-15T22:27:08.809Z,13.63
2018-09-15T22:29:13.936Z,12.27
2018-09-15T22:31:18.788Z,12.70
2018-09-15T22:33:23.689Z,14.20
2018-09-15T22:35:30.413Z,20.00
2018-09-15T22:37:35.773Z,17.83
2018-09-15T22:39:40.775Z,13.70
2018-09-15T22:41:45.617Z,11.03
2018-09-15T22:43:50.689Z,13.33
2018-09-15T22:45:55.527Z,17.43
2018-09-15T22:48:00.748Z,11.30
2018-09-15T22:50:06.534Z,13.13
2018-09-15T22:52:11.525Z,16.33
2018-09-15T22:54:16.798Z,11.60
2018-09-15T22:56:21.695Z,12.63
2018-09-15T22:58:26.389Z,38.50
2018-09-15T23:00:31.286Z,569.40
2018-09-15T23:02:36.411Z,1999.90
2018-09-15T23:04:41.399Z,1999.90
2018-09-15T23:06:46.489Z,1999.90
2018-09-15T23:08:51.478Z,1999.90
2018-09-15T23:10:56.532Z,1835.83
2018-09-15T23:13:01.461Z,1629.03
2018-09-15T23:15:06.213Z,1258.93
2018-09-15T23:17:11.029Z,932.35
2018-09-15T23:19:19.512Z,670.80
2018-09-15T23:21:26.854Z,649.97
2018-09-15T23:23:31.585Z,617.07
2018-09-15T23:25:36.443Z,615.47
2018-09-15T23:27:41.659Z,609.23
2018-09-15T23:29:46.639Z,586.37
2018-09-15T23:31:51.616Z,576.70
2018-09-15T23:33:56.595Z,550.23
2018-09-15T23:36:01.588Z,548.93
2018-09-15T23:38:06.666Z,534.73
2018-09-15T23:40:11.548Z,529.73
2018-09-15T23:42:17.173Z,497.73
2018-09-15T23:44:22.047Z,497.77
2018-09-15T23:46:27.076Z,486.83
2018-09-15T23:48:32.089Z,464.23
2018-09-15T23:50:37.314Z,457.27
2018-09-15T23:52:42.483Z,452.00
2018-09-15T23:54:47.452Z,425.60
2018-09-15T23:56:52.479Z,418.40
2018-09-15T23:58:57.413Z,351.87
